Time;durP1;ratioP1;P1;durP2;ratioP2;P2;SDS_P1;SDS_P2;PMS_P1;PMS_P2;Temp;Humidity;BMP_temperature;BMP_pressure;BME280_temperature;BME280_humidity;BME280_pressure;Samples;Min_cycle;Max_cycle;Signal;HPM_P1;HPM_P2
2023/08/27 00:00:39;;;;;;;7.37;2.80;;;22.40;87.50;;;;;;5074207;28;20222;-70
2023/08/27 00:03:08;;;;;;;4.07;2.87;;;22.40;87.60;;;;;;5073878;28;20232;-69
2023/08/27 00:05:34;;;;;;;2.87;2.57;;;22.40;87.70;;;;;;5074250;28;20212;-70
2023/08/27 00:08:03;;;;;;;2.53;2.33;;;22.50;87.90;;;;;;5074172;28;20236;-70
2023/08/27 00:10:29;;;;;;;4.17;3.00;;;22.50;88.00;;;;;;5073949;28;20205;-70
2023/08/27 00:12:59;;;;;;;9.70;3.13;;;22.40;87.90;;;;;;5074035;28;20221;-70
2023/08/27 00:15:26;;;;;;;4.00;2.83;;;22.40;88.00;;;;;;5073223;28;20692;-70
2023/08/27 00:17:53;;;;;;;3.23;2.80;;;22.40;88.10;;;;;;5073690;28;20232;-69
2023/08/27 00:20:20;;;;;;;3.87;2.87;;;22.40;88.20;;;;;;5073824;28;20220;-70
2023/08/27 00:22:47;;;;;;;3.60;2.90;;;22.40;88.20;;;;;;5073796;28;20235;-70
2023/08/27 00:25:16;;;;;;;3.57;2.70;;;22.50;88.40;;;;;;5073690;28;20197;-70
2023/08/27 00:27:43;;;;;;;5.63;2.93;;;22.40;88.40;;;;;;5073478;28;20205;-69
2023/08/27 00:30:11;;;;;;;3.60;3.30;;;22.40;88.30;;;;;;5073717;28;20212;-70
2023/08/27 00:32:39;;;;;;;4.70;3.00;;;22.40;88.30;;;;;;5073773;28;20300;-69
2023/08/27 00:35:06;;;;;;;3.83;2.97;;;22.30;88.60;;;;;;5073219;28;20235;-70
2023/08/27 00:37:33;;;;;;;3.87;3.10;;;22.30;88.90;;;;;;5073457;28;20201;-70
2023/08/27 00:40:00;;;;;;;3.30;3.00;;;22.30;88.50;;;;;;5073443;28;20231;-70
2023/08/27 00:42:28;;;;;;;4.77;3.03;;;22.30;88.50;;;;;;5073500;28;20227;-70
2023/08/27 00:44:55;;;;;;;3.33;2.93;;;22.30;88.40;;;;;;5072376;28;20229;-70
2023/08/27 00:47:22;;;;;;;3.40;3.10;;;22.30;88.80;;;;;;5073189;28;20217;-70
2023/08/27 00:49:50;;;;;;;4.27;3.07;;;22.40;88.70;;;;;;5073126;28;20232;-70
2023/08/27 00:52:18;;;;;;;4.53;3.03;;;22.30;88.70;;;;;;5073065;28;20189;-69
2023/08/27 00:54:45;;;;;;;5.80;3.13;;;22.30;89.80;;;;;;5073146;28;20240;-70
2023/08/27 00:57:13;;;;;;;5.03;3.00;;;22.20;89.10;;;;;;5072747;28;20208;-70
2023/08/27 00:59:42;;;;;;;3.23;2.93;;;22.30;89.30;;;;;;5073212;28;20211;-70
2023/08/27 01:02:09;;;;;;;3.57;3.27;;;22.30;89.40;;;;;;5073319;28;20615;-70
2023/08/27 01:04:35;;;;;;;3.63;2.87;;;22.30;89.30;;;;;;5073021;28;20233;-70
2023/08/27 01:07:15;;;;;;;5.07;3.00;;;22.30;89.30;;;;;;5072473;28;20681;-69
2023/08/27 01:09:47;;;;;;;4.07;2.90;;;22.30;89.60;;;;;;5073201;28;20549;-70
2023/08/27 01:12:22;;;;;;;4.93;3.03;;;22.30;89.40;;;;;;5072669;28;20189;-70
2023/08/27 01:14:53;;;;;;;3.40;3.10;;;22.30;89.30;;;;;;5072962;28;20292;-70
2023/08/27 01:17:22;;;;;;;4.57;2.77;;;22.30;89.40;;;;;;5072557;28;20224;-70
2023/08/27 01:19:49;;;;;;;3.10;2.63;;;22.30;89.40;;;;;;5071554;28;20232;-70
2023/08/27 01:22:17;;;;;;;4.30;3.10;;;22.30;89.30;;;;;;5072700;28;20254;-69
2023/08/27 01:24:44;;;;;;;7.20;3.17;;;22.30;89.50;;;;;;5072388;28;20221;-70
2023/08/27 01:27:17;;;;;;;3.40;2.90;;;22.40;89.30;;;;;;5072007;28;20225;-70
2023/08/27 01:29:48;;;;;;;3.70;2.60;;;22.40;89.40;;;;;;5072325;28;20280;-70
2023/08/27 01:32:24;;;;;;;3.40;3.00;;;22.40;89.50;;;;;;5072514;28;20759;-69
2023/08/27 01:34:54;;;;;;;4.10;3.03;;;22.40;89.60;;;;;;5072313;28;20205;-69
2023/08/27 01:37:22;;;;;;;4.73;2.53;;;22.40;89.60;;;;;;5072526;28;20233;-69
2023/08/27 01:39:58;;;;;;;4.47;3.30;;;22.40;89.50;;;;;;5072557;28;20231;-69
2023/08/27 01:42:25;;;;;;;5.43;3.20;;;22.40;89.60;;;;;;5071986;28;20239;-69
2023/08/27 01:44:53;;;;;;;6.17;3.50;;;22.40;89.40;;;;;;5072415;28;20221;-69
2023/08/27 01:47:20;;;;;;;4.87;3.20;;;22.40;89.50;;;;;;5071845;28;20208;-69
2023/08/27 01:49:46;;;;;;;3.40;3.00;;;22.40;89.30;;;;;;5072553;28;20195;-70
2023/08/27 01:52:13;;;;;;;4.17;3.03;;;22.40;89.40;;;;;;5072773;28;20216;-70
2023/08/27 01:54:41;;;;;;;3.37;3.07;;;22.40;89.60;;;;;;5071886;28;20205;-70
2023/08/27 01:57:08;;;;;;;3.07;2.73;;;22.30;89.50;;;;;;5071700;28;20215;-69
2023/08/27 01:59:35;;;;;;;3.87;2.73;;;22.30;89.70;;;;;;5072089;28;20213;-69
2023/08/27 02:02:02;;;;;;;5.00;3.67;;;22.40;89.70;;;;;;5072089;28;20223;-69
2023/08/27 02:04:29;;;;;;;3.37;3.03;;;22.40;89.70;;;;;;5072347;28;20243;-69
2023/08/27 02:06:56;;;;;;;4.23;3.40;;;22.40;89.70;;;;;;5072041;28;20211;-69
2023/08/27 02:09:23;;;;;;;3.53;3.07;;;22.40;89.70;;;;;;5071277;28;20228;-69
2023/08/27 02:11:51;;;;;;;3.03;2.73;;;22.40;89.70;;;;;;5071693;28;20204;-69
2023/08/27 02:14:18;;;;;;;3.97;2.87;;;22.40;89.50;;;;;;5072132;28;20231;-68
2023/08/27 02:16:45;;;;;;;4.93;3.03;;;22.40;89.30;;;;;;5072007;28;20221;-70
2023/08/27 02:19:11;;;;;;;3.80;2.87;;;22.40;89.20;;;;;;5071372;28;20237;-69
2023/08/27 02:21:38;;;;;;;4.60;3.67;;;22.40;89.20;;;;;;5072174;28;20280;-70
2023/08/27 02:24:06;;;;;;;4.53;2.83;;;22.40;89.20;;;;;;5071924;28;20231;-69
2023/08/27 02:26:32;;;;;;;5.50;2.90;;;22.40;89.20;;;;;;5071766;28;20226;-69
2023/08/27 02:29:02;;;;;;;5.47;2.83;;;22.40;89.20;;;;;;5071773;28;20216;-69
2023/08/27 02:31:28;;;;;;;3.63;2.93;;;22.40;89.20;;;;;;5071510;28;20685;-68
2023/08/27 02:33:55;;;;;;;6.47;3.13;;;22.40;89.10;;;;;;5072063;28;20221;-69
2023/08/27 02:36:22;;;;;;;4.93;2.70;;;22.40;89.10;;;;;;5071713;28;20739;-70
2023/08/27 02:38:49;;;;;;;4.13;3.07;;;22.40;89.20;;;;;;5070931;28;20233;-69
2023/08/27 02:41:16;;;;;;;3.83;3.00;;;22.40;89.40;;;;;;5071620;28;20237;-70
2023/08/27 02:43:42;;;;;;;5.97;3.00;;;22.40;89.40;;;;;;5053613;28;20228;-70
2023/08/27 02:46:11;;;;;;;3.80;2.87;;;22.30;89.30;;;;;;5071701;28;20228;-70
2023/08/27 02:48:37;;;;;;;5.33;2.90;;;22.30;89.40;;;;;;5071564;28;20668;-70
2023/08/27 02:51:04;;;;;;;2.73;2.47;;;22.30;89.40;;;;;;5071810;28;20229;-70
2023/08/27 02:53:31;;;;;;;6.03;3.13;;;22.30;89.50;;;;;;5071593;28;20651;-69
2023/08/27 02:55:58;;;;;;;3.10;2.80;;;22.30;89.60;;;;;;5072254;28;20209;-70
2023/08/27 02:58:25;;;;;;;4.60;3.23;;;22.30;89.50;;;;;;5074298;28;20200;-69
2023/08/27 03:00:51;;;;;;;5.90;3.30;;;22.30;89.60;;;;;;5074350;28;20221;-70
2023/08/27 03:03:19;;;;;;;3.10;2.83;;;22.30;89.50;;;;;;5071714;28;20201;-69
2023/08/27 03:05:47;;;;;;;5.53;3.47;;;22.30;89.70;;;;;;5071301;28;20216;-69
2023/08/27 03:08:13;;;;;;;3.33;3.00;;;22.30;89.80;;;;;;5071280;28;20245;-70
2023/08/27 03:10:40;;;;;;;3.13;2.50;;;22.30;90.00;;;;;;5071368;28;20563;-70
2023/08/27 03:13:07;;;;;;;3.47;2.70;;;22.30;90.00;;;;;;5071866;28;20231;-70
2023/08/27 03:15:34;;;;;;;3.23;2.70;;;22.30;90.00;;;;;;5071261;28;20571;-69
2023/08/27 03:18:01;;;;;;;4.33;2.70;;;22.30;90.00;;;;;;5071837;28;20233;-70
2023/08/27 03:20:29;;;;;;;3.13;2.83;;;22.30;90.00;;;;;;5071465;28;20323;-70
2023/08/27 03:22:56;;;;;;;3.10;2.80;;;22.30;90.10;;;;;;5074803;28;20324;-69
2023/08/27 03:25:23;;;;;;;4.30;3.00;;;22.20;90.10;;;;;;5074892;28;20216;-70
2023/08/27 03:27:50;;;;;;;5.03;3.30;;;22.30;90.20;;;;;;5074863;28;20205;-69
2023/08/27 03:30:16;;;;;;;2.90;2.63;;;22.20;90.10;;;;;;5074527;28;20303;-69
2023/08/27 03:32:43;;;;;;;4.50;3.00;;;22.20;90.20;;;;;;5074975;28;20205;-69
2023/08/27 03:35:11;;;;;;;4.17;3.00;;;22.20;90.10;;;;;;5074815;28;20197;-69
2023/08/27 03:37:39;;;;;;;5.30;2.87;;;22.20;90.10;;;;;;5074245;28;20201;-69
2023/08/27 03:40:08;;;;;;;5.37;2.73;;;22.20;90.10;;;;;;5074437;28;20236;-69
2023/08/27 03:42:34;;;;;;;5.43;3.10;;;22.30;90.20;;;;;;5074715;28;20243;-69
2023/08/27 03:45:01;;;;;;;4.47;3.20;;;22.30;90.30;;;;;;5074383;28;20232;-69
2023/08/27 03:47:28;;;;;;;5.33;3.20;;;22.30;90.20;;;;;;5074802;28;20209;-69
2023/08/27 03:49:56;;;;;;;5.60;2.90;;;22.20;90.50;;;;;;5074317;28;20225;-69
2023/08/27 03:52:23;;;;;;;3.93;3.33;;;22.30;90.30;;;;;;5074084;28;20223;-68
2023/08/27 03:54:51;;;;;;;3.80;3.40;;;22.30;90.20;;;;;;5074610;28;20229;-70
2023/08/27 03:57:18;;;;;;;4.60;3.07;;;22.30;90.20;;;;;;5085490;28;20205;-69
2023/08/27 03:59:45;;;;;;;5.67;2.97;;;22.30;90.20;;;;;;5082787;28;20258;-70
2023/08/27 04:02:12;;;;;;;3.47;3.07;;;22.30;90.20;;;;;;5074502;28;20200;-70
2023/08/27 04:04:39;;;;;;;3.77;2.90;;;22.30;90.20;;;;;;5074243;28;20491;-70
2023/08/27 04:07:06;;;;;;;4.33;2.87;;;22.30;90.20;;;;;;5074181;28;20282;-70
2023/08/27 04:09:33;;;;;;;3.57;3.10;;;22.30;90.30;;;;;;5074578;28;20598;-69
2023/08/27 04:12:03;;;;;;;4.63;3.40;;;22.30;90.20;;;;;;5074289;28;20266;-70
2023/08/27 04:14:30;;;;;;;3.93;2.73;;;22.30;90.30;;;;;;5074226;28;20214;-70
2023/08/27 04:16:57;;;;;;;3.93;3.50;;;22.20;90.30;;;;;;5073741;28;20212;-70
2023/08/27 04:19:24;;;;;;;3.13;2.87;;;22.20;90.60;;;;;;5074249;28;20295;-70
2023/08/27 04:21:50;;;;;;;4.60;3.20;;;22.20;90.30;;;;;;5073237;28;20593;-69
2023/08/27 04:24:17;;;;;;;4.93;3.30;;;22.20;90.40;;;;;;5073757;28;20235;-69
2023/08/27 04:26:44;;;;;;;6.50;3.93;;;22.20;90.40;;;;;;5074120;28;20229;-69
2023/08/27 04:29:12;;;;;;;4.53;3.30;;;22.20;90.40;;;;;;5073544;28;20687;-70
2023/08/27 04:31:39;;;;;;;3.27;2.93;;;22.10;90.40;;;;;;5072957;28;20239;-69
2023/08/27 04:34:06;;;;;;;3.10;2.80;;;22.10;90.40;;;;;;5073724;28;20205;-68
2023/08/27 04:36:33;;;;;;;4.60;3.40;;;22.20;90.40;;;;;;5073175;28;20236;-70
2023/08/27 04:38:59;;;;;;;5.77;3.07;;;22.10;90.40;;;;;;5073758;28;20554;-70
2023/08/27 04:41:27;;;;;;;4.63;2.90;;;22.10;90.40;;;;;;5073313;28;20205;-70
2023/08/27 04:43:54;;;;;;;5.93;3.07;;;22.10;90.40;;;;;;5073464;28;20221;-70
2023/08/27 04:46:22;;;;;;;4.73;3.53;;;22.20;90.50;;;;;;5073176;28;20205;-70
2023/08/27 04:48:48;;;;;;;4.03;3.00;;;22.10;90.40;;;;;;5073520;28;20216;-69
2023/08/27 04:51:16;;;;;;;3.10;2.80;;;22.10;90.40;;;;;;5073345;28;20209;-70
2023/08/27 04:53:43;;;;;;;4.87;3.10;;;22.10;90.40;;;;;;5072892;28;20228;-70
2023/08/27 04:56:09;;;;;;;4.70;3.00;;;22.10;90.40;;;;;;5073607;28;20209;-70
2023/08/27 04:58:36;;;;;;;3.70;3.30;;;22.10;90.50;;;;;;5073381;28;20232;-70
2023/08/27 05:01:03;;;;;;;3.83;3.00;;;22.10;90.40;;;;;;5073234;28;20205;-70
2023/08/27 05:03:31;;;;;;;3.40;3.10;;;22.10;90.40;;;;;;5072636;28;20229;-70
2023/08/27 05:05:58;;;;;;;4.27;3.00;;;22.10;90.40;;;;;;5073054;28;20235;-70
2023/08/27 05:08:25;;;;;;;4.83;3.30;;;22.10;90.60;;;;;;5072940;28;20649;-70
2023/08/27 05:10:52;;;;;;;5.97;3.87;;;22.20;90.50;;;;;;5072758;28;20200;-70
2023/08/27 05:13:19;;;;;;;7.50;3.60;;;22.20;90.40;;;;;;5072616;28;20205;-69
2023/08/27 05:15:45;;;;;;;3.77;3.30;;;22.10;90.40;;;;;;5072568;28;20204;-70
2023/08/27 05:18:13;;;;;;;4.80;3.63;;;22.00;90.30;;;;;;5072657;28;20300;-70
2023/08/27 05:20:41;;;;;;;9.37;3.33;;;22.00;90.50;;;;;;5072717;28;20205;-70
2023/08/27 05:23:08;;;;;;;3.80;3.50;;;21.90;90.60;;;;;;5072326;28;20217;-69
2023/08/27 05:25:35;;;;;;;7.77;3.00;;;21.90;90.80;;;;;;5072273;28;20712;-69
2023/08/27 05:28:02;;;;;;;4.63;3.10;;;21.80;90.70;;;;;;5072859;28;20596;-69
2023/08/27 05:30:29;;;;;;;5.47;3.20;;;21.80;90.80;;;;;;5072595;28;20233;-69
2023/08/27 05:32:56;;;;;;;3.97;2.80;;;21.80;90.80;;;;;;5072196;28;20219;-70
2023/08/27 05:35:24;;;;;;;4.47;3.20;;;21.90;90.90;;;;;;5071841;28;20696;-70
2023/08/27 05:37:52;;;;;;;3.10;2.80;;;21.90;90.70;;;;;;5072461;28;20216;-70
2023/08/27 05:40:19;;;;;;;3.10;2.90;;;22.00;90.70;;;;;;5072311;28;20248;-70
2023/08/27 05:42:45;;;;;;;11.50;3.43;;;22.00;90.70;;;;;;5071620;28;20312;-70
2023/08/27 05:45:12;;;;;;;2.93;2.53;;;22.00;91.00;;;;;;5071640;28;20233;-70
2023/08/27 05:47:39;;;;;;;4.37;2.80;;;22.10;90.70;;;;;;5071922;28;20220;-70
2023/08/27 05:50:06;;;;;;;3.80;3.03;;;22.10;90.70;;;;;;5072157;28;20579;-70
2023/08/27 05:52:33;;;;;;;4.10;2.83;;;22.20;90.70;;;;;;5072416;28;20203;-70
2023/08/27 05:55:02;;;;;;;4.40;3.47;;;22.20;91.00;;;;;;5071596;28;20675;-70
2023/08/27 05:57:28;;;;;;;5.27;3.30;;;22.20;90.40;;;;;;5071837;28;20714;-70
2023/08/27 05:59:55;;;;;;;3.43;3.13;;;22.30;90.30;;;;;;5072282;28;20217;-69
2023/08/27 06:02:22;;;;;;;4.57;3.40;;;22.30;90.40;;;;;;5086873;28;20292;-69
2023/08/27 06:04:49;;;;;;;4.60;3.10;;;22.30;90.30;;;;;;5088069;28;20285;-70
2023/08/27 06:07:17;;;;;;;3.30;2.70;;;22.30;90.20;;;;;;5088048;28;20229;-70
2023/08/27 06:09:44;;;;;;;5.80;3.57;;;22.30;90.20;;;;;;5088454;28;20299;-69
2023/08/27 06:12:12;;;;;;;7.00;3.57;;;22.30;90.00;;;;;;5088299;28;20208;-69
2023/08/27 06:14:39;;;;;;;4.17;2.77;;;22.30;90.10;;;;;;5087838;28;20208;-70
2023/08/27 06:17:06;;;;;;;3.87;3.03;;;22.30;90.10;;;;;;5086877;28;20232;-70
2023/08/27 06:19:32;;;;;;;5.00;3.37;;;22.30;90.10;;;;;;5087085;28;20205;-69
2023/08/27 06:21:59;;;;;;;5.43;3.53;;;22.30;90.10;;;;;;5087342;28;20229;-69
2023/08/27 06:24:26;;;;;;;6.23;3.10;;;22.30;90.20;;;;;;5086310;28;20231;-69
2023/08/27 06:26:53;;;;;;;4.90;3.53;;;22.40;90.20;;;;;;5085710;28;20300;-70
2023/08/27 06:29:21;;;;;;;3.20;2.90;;;22.40;90.20;;;;;;5086113;28;20252;-69
2023/08/27 06:31:48;;;;;;;3.47;2.77;;;22.50;90.40;;;;;;5084983;28;20296;-69
2023/08/27 06:34:14;;;;;;;3.20;2.90;;;22.50;90.40;;;;;;5085014;28;20269;-69
2023/08/27 06:36:41;;;;;;;3.40;3.10;;;22.60;90.30;;;;;;5078946;28;20212;-70
2023/08/27 06:39:08;;;;;;;6.83;2.73;;;22.70;90.40;;;;;;5071750;28;20675;-70
2023/08/27 06:41:35;;;;;;;5.47;3.50;;;22.70;90.20;;;;;;5071871;28;20209;-69
2023/08/27 06:44:02;;;;;;;4.60;3.70;;;22.70;89.70;;;;;;5071883;28;20228;-70
2023/08/27 06:46:30;;;;;;;7.93;2.93;;;22.70;89.50;;;;;;5070814;28;20225;-69
2023/08/27 06:48:57;;;;;;;4.67;3.00;;;22.70;89.20;;;;;;5072333;28;20235;-69
2023/08/27 06:51:24;;;;;;;6.97;3.10;;;22.50;88.70;;;;;;5071647;28;20209;-70
2023/08/27 06:53:50;;;;;;;5.63;3.60;;;22.40;89.20;;;;;;5071245;28;20233;-70
2023/08/27 06:56:18;;;;;;;5.30;3.40;;;22.40;89.50;;;;;;5074836;28;20231;-70
2023/08/27 06:58:44;;;;;;;3.93;3.53;;;22.30;89.60;;;;;;5075674;28;20258;-70
2023/08/27 07:01:12;;;;;;;5.50;3.17;;;22.30;89.80;;;;;;5075314;28;20200;-69
2023/08/27 07:03:40;;;;;;;3.47;3.03;;;22.30;89.80;;;;;;5075947;28;20211;-70
2023/08/27 07:06:07;;;;;;;6.77;3.30;;;22.30;89.80;;;;;;5088122;28;20229;-69
2023/08/27 07:08:33;;;;;;;4.20;3.10;;;22.30;89.50;;;;;;5085703;28;20209;-69
2023/08/27 07:11:03;;;;;;;4.90;3.00;;;22.40;89.70;;;;;;5079332;28;20209;-68
2023/08/27 07:13:29;;;;;;;3.43;3.10;;;22.50;89.70;;;;;;5084941;28;20204;-69
2023/08/27 07:15:57;;;;;;;4.37;3.20;;;22.50;89.30;;;;;;5080449;28;20768;-69
2023/08/27 07:18:23;;;;;;;6.63;3.20;;;22.60;89.20;;;;;;5074659;28;20212;-69
2023/08/27 07:20:52;;;;;;;8.03;3.50;;;22.70;89.00;;;;;;5054627;28;20240;-69
2023/08/27 07:23:19;;;;;;;4.00;3.20;;;22.70;88.90;;;;;;5054816;28;20210;-70
2023/08/27 07:25:46;;;;;;;5.03;3.30;;;22.80;88.70;;;;;;5054644;28;20492;-69
2023/08/27 07:28:13;;;;;;;4.47;3.13;;;22.90;88.10;;;;;;5054717;28;20233;-69
2023/08/27 07:30:40;;;;;;;3.73;2.80;;;22.90;88.10;;;;;;5055317;28;20233;-69
2023/08/27 07:33:07;;;;;;;3.50;3.20;;;23.00;88.10;;;;;;5055350;28;20208;-69
2023/08/27 07:35:33;;;;;;;4.00;3.40;;;23.00;87.70;;;;;;5055113;28;20218;-69
2023/08/27 07:38:02;;;;;;;5.67;3.27;;;23.00;87.90;;;;;;5054106;28;20241;-69
2023/08/27 07:40:29;;;;;;;3.73;2.80;;;23.10;87.70;;;;;;5054985;28;20300;-69
2023/08/27 07:42:56;;;;;;;4.60;3.30;;;23.10;87.90;;;;;;5057862;28;20200;-69
2023/08/27 07:45:23;;;;;;;6.77;3.73;;;23.10;87.70;;;;;;5074156;28;20225;-70
2023/08/27 07:47:50;;;;;;;6.27;4.07;;;23.00;88.20;;;;;;5074122;28;20212;-69
2023/08/27 07:50:16;;;;;;;5.40;4.07;;;23.00;87.90;;;;;;5074177;28;20239;-69
2023/08/27 07:52:43;;;;;;;4.13;3.53;;;23.00;87.90;;;;;;5074502;28;20227;-70
2023/08/27 07:55:11;;;;;;;6.60;4.23;;;23.10;88.10;;;;;;5074615;28;20201;-70
2023/08/27 07:57:38;;;;;;;6.27;4.37;;;23.00;88.00;;;;;;5074122;28;20235;-70
2023/08/27 08:00:07;;;;;;;5.40;4.23;;;22.90;88.00;;;;;;5074341;28;20208;-69
2023/08/27 08:02:34;;;;;;;4.40;3.33;;;23.00;88.40;;;;;;5074071;28;20225;-70
2023/08/27 08:05:02;;;;;;;4.33;3.60;;;22.90;88.50;;;;;;5074173;28;20583;-70
2023/08/27 08:07:28;;;;;;;5.77;3.50;;;23.00;88.50;;;;;;5073172;28;20322;-69
2023/08/27 08:09:55;;;;;;;5.67;3.90;;;23.00;88.20;;;;;;5073792;28;20223;-69
2023/08/27 08:12:23;;;;;;;9.63;4.20;;;23.00;88.00;;;;;;5073802;28;20208;-69
2023/08/27 08:14:50;;;;;;;5.73;4.37;;;22.90;88.30;;;;;;5073830;28;20196;-69
2023/08/27 08:17:17;;;;;;;6.60;4.03;;;23.00;88.40;;;;;;5074167;28;20228;-69
2023/08/27 08:19:44;;;;;;;5.80;4.20;;;23.00;88.60;;;;;;5073134;28;20657;-69
2023/08/27 08:22:11;;;;;;;6.43;5.03;;;23.10;88.40;;;;;;5073994;28;20211;-69
2023/08/27 08:24:38;;;;;;;5.40;4.07;;;23.10;88.00;;;;;;5073579;28;20319;-69
2023/08/27 08:27:06;;;;;;;7.33;4.80;;;23.10;87.80;;;;;;5073314;28;20243;-70
2023/08/27 08:29:34;;;;;;;5.17;4.27;;;23.20;87.70;;;;;;5073287;28;20323;-69
2023/08/27 08:32:01;;;;;;;5.23;4.03;;;23.10;87.90;;;;;;5073810;28;20205;-70
2023/08/27 08:34:28;;;;;;;4.83;4.40;;;23.20;88.20;;;;;;5073331;28;20232;-70
2023/08/27 08:36:55;;;;;;;4.20;3.80;;;23.10;87.70;;;;;;5073760;28;20202;-69
2023/08/27 08:39:23;;;;;;;4.97;4.13;;;23.10;87.70;;;;;;5072985;28;20705;-69
2023/08/27 08:41:56;;;;;;;6.17;4.20;;;23.20;87.60;;;;;;5073272;28;20216;-70
2023/08/27 08:44:31;;;;;;;5.60;3.97;;;23.30;87.60;;;;;;5073577;28;20651;-70
2023/08/27 08:47:00;;;;;;;6.73;3.87;;;23.30;86.90;;;;;;5073268;28;20208;-69
2023/08/27 08:49:31;;;;;;;6.37;3.80;;;23.30;87.30;;;;;;5072784;28;20240;-70
2023/08/27 08:52:03;;;;;;;6.47;3.67;;;23.40;87.10;;;;;;5073746;28;20201;-69
2023/08/27 08:54:30;;;;;;;3.83;3.47;;;23.50;87.20;;;;;;5073180;28;20196;-69
2023/08/27 08:57:01;;;;;;;4.93;3.60;;;23.50;86.90;;;;;;5073017;28;20228;-68
2023/08/27 08:59:29;;;;;;;3.77;2.90;;;23.60;86.40;;;;;;5072812;28;20236;-69
2023/08/27 09:01:56;;;;;;;3.57;2.70;;;23.60;86.10;;;;;;5072855;28;20215;-70
2023/08/27 09:04:26;;;;;;;3.37;3.07;;;23.70;85.70;;;;;;5073026;28;20205;-68
2023/08/27 09:06:54;;;;;;;5.07;3.00;;;23.90;85.60;;;;;;5073010;28;20324;-70
2023/08/27 09:09:23;;;;;;;4.37;3.00;;;24.00;85.60;;;;;;5072910;28;20239;-70
2023/08/27 09:11:51;;;;;;;3.87;3.00;;;24.10;85.00;;;;;;5072443;28;20232;-69
2023/08/27 09:14:20;;;;;;;3.30;3.00;;;24.10;85.70;;;;;;5072774;28;20197;-69
2023/08/27 09:16:47;;;;;;;3.07;2.50;;;24.10;85.10;;;;;;5072895;28;20633;-69
2023/08/27 09:19:14;;;;;;;5.13;2.80;;;24.10;84.90;;;;;;5072569;28;20218;-69
2023/08/27 09:21:43;;;;;;;4.67;2.90;;;24.20;84.80;;;;;;5072931;28;20229;-68
2023/08/27 09:24:10;;;;;;;3.50;3.20;;;24.30;84.10;;;;;;5074321;28;20274;-69
2023/08/27 09:26:38;;;;;;;4.57;3.00;;;24.20;84.30;;;;;;5074977;28;20267;-70
2023/08/27 09:29:06;;;;;;;5.90;3.20;;;24.10;83.90;;;;;;5075198;28;20193;-69
2023/08/27 09:31:38;;;;;;;4.50;3.20;;;24.00;84.20;;;;;;5074644;28;20207;-68
2023/08/27 09:34:05;;;;;;;3.90;3.03;;;23.90;83.80;;;;;;5075893;28;20231;-69
2023/08/27 09:36:33;;;;;;;4.53;3.10;;;23.80;83.80;;;;;;5075913;28;20254;-70
2023/08/27 09:39:08;;;;;;;4.13;2.70;;;23.90;84.20;;;;;;5074015;28;20310;-70
2023/08/27 09:41:38;;;;;;;4.30;2.97;;;24.00;84.40;;;;;;5075450;28;20193;-68
2023/08/27 09:44:07;;;;;;;3.10;2.80;;;24.10;84.00;;;;;;5072727;28;20657;-69
2023/08/27 09:46:33;;;;;;;3.97;3.00;;;24.30;83.80;;;;;;5072652;28;20743;-70
2023/08/27 09:49:04;;;;;;;4.17;3.30;;;24.40;83.70;;;;;;5072462;28;20319;-70
2023/08/27 09:51:33;;;;;;;2.80;2.60;;;24.50;82.40;;;;;;5071768;28;20193;-70
2023/08/27 09:54:00;;;;;;;4.67;2.87;;;24.50;82.40;;;;;;5071720;28;20318;-70
2023/08/27 09:56:28;;;;;;;3.50;3.10;;;24.60;83.00;;;;;;5072155;28;20204;-70
2023/08/27 09:58:56;;;;;;;3.00;2.60;;;24.60;82.20;;;;;;5072771;28;20239;-70
2023/08/27 10:01:25;;;;;;;5.57;2.83;;;24.70;81.90;;;;;;5074753;28;20833;-69
2023/08/27 10:03:53;;;;;;;6.87;3.37;;;24.80;81.50;;;;;;5072289;28;20252;-70
2023/08/27 10:06:20;;;;;;;3.43;2.97;;;24.80;80.40;;;;;;5072044;28;20229;-69
2023/08/27 10:08:50;;;;;;;3.60;2.57;;;24.60;80.10;;;;;;5072026;28;20224;-69
2023/08/27 10:11:18;;;;;;;3.20;2.90;;;24.60;81.60;;;;;;5072031;28;20190;-69
2023/08/27 10:13:46;;;;;;;3.63;2.77;;;24.70;79.70;;;;;;5072087;28;20546;-70
2023/08/27 10:16:14;;;;;;;4.03;2.90;;;24.70;79.70;;;;;;5072290;28;20304;-69
2023/08/27 10:18:41;;;;;;;3.10;2.53;;;24.80;79.90;;;;;;5072145;28;20208;-69
2023/08/27 10:21:08;;;;;;;2.90;2.50;;;24.90;79.70;;;;;;5072188;28;20232;-69
2023/08/27 10:23:38;;;;;;;5.07;3.00;;;25.10;79.90;;;;;;5072315;28;20228;-70
2023/08/27 10:26:06;;;;;;;3.27;2.90;;;25.10;78.30;;;;;;5072902;28;20221;-69
2023/08/27 10:28:33;;;;;;;3.57;2.93;;;25.00;77.90;;;;;;5072881;28;20299;-69
2023/08/27 10:31:03;;;;;;;4.17;2.67;;;24.90;78.10;;;;;;5074946;28;20233;-70
2023/08/27 10:33:30;;;;;;;4.50;2.70;;;24.90;78.10;;;;;;5076144;28;20262;-69
2023/08/27 10:36:00;;;;;;;3.50;2.57;;;25.00;78.40;;;;;;5076160;28;20591;-69
2023/08/27 10:38:28;;;;;;;3.13;2.63;;;25.10;78.20;;;;;;5075396;28;20243;-69
2023/08/27 10:40:56;;;;;;;3.37;2.43;;;25.30;77.90;;;;;;5075400;28;20233;-69
2023/08/27 10:43:23;;;;;;;4.27;2.53;;;25.40;77.30;;;;;;5075502;28;20224;-70
2023/08/27 10:45:52;;;;;;;2.93;2.30;;;25.50;76.50;;;;;;5075613;28;20314;-70
2023/08/27 10:48:30;;;;;;;4.93;2.43;;;25.50;76.60;;;;;;5075885;28;20274;-70
2023/08/27 10:51:10;;;;;;;4.40;2.80;;;25.60;76.60;;;;;;5075595;28;20189;-70
2023/08/27 10:53:41;;;;;;;3.13;2.83;;;25.60;76.00;;;;;;5075292;28;20204;-69
2023/08/27 10:56:26;;;;;;;2.70;2.50;;;25.70;75.90;;;;;;5075690;28;20217;-70
2023/08/27 10:58:53;;;;;;;2.50;2.30;;;25.80;75.90;;;;;;5075654;28;20546;-70
2023/08/27 11:01:20;;;;;;;4.20;2.53;;;25.90;75.00;;;;;;5075158;28;20216;-71
2023/08/27 11:03:57;;;;;;;3.40;2.27;;;26.00;75.20;;;;;;5075490;28;20193;-70
2023/08/27 11:06:49;;;;;;;3.17;2.33;;;26.00;73.80;;;;;;5075005;28;20216;-70
2023/08/27 11:09:20;;;;;;;4.57;2.20;;;26.00;73.30;;;;;;5051380;28;20205;-69
2023/08/27 11:11:50;;;;;;;3.57;2.37;;;26.00;73.70;;;;;;5075028;28;20204;-70
2023/08/27 11:14:18;;;;;;;2.40;2.20;;;26.10;73.70;;;;;;5074789;28;20210;-70
2023/08/27 11:16:47;;;;;;;3.07;2.37;;;26.20;73.90;;;;;;5075222;28;20720;-70
2023/08/27 11:19:25;;;;;;;3.40;2.93;;;26.20;73.40;;;;;;5075452;28;20201;-69
2023/08/27 11:21:52;;;;;;;3.43;2.30;;;26.40;73.10;;;;;;5075417;28;20224;-69
2023/08/27 11:24:21;;;;;;;4.03;2.20;;;26.30;72.60;;;;;;5075483;28;20324;-69
2023/08/27 11:26:49;;;;;;;4.00;2.40;;;26.30;72.40;;;;;;5076960;28;20232;-70
2023/08/27 11:29:16;;;;;;;2.23;2.03;;;26.30;71.40;;;;;;5080800;28;20278;-69
2023/08/27 11:31:45;;;;;;;2.33;2.10;;;26.30;72.20;;;;;;5078052;28;20244;-70
2023/08/27 11:34:13;;;;;;;2.70;2.40;;;26.30;71.90;;;;;;5074651;28;20338;-70
2023/08/27 11:36:43;;;;;;;2.70;2.20;;;26.40;72.00;;;;;;5074477;28;20447;-70
2023/08/27 11:39:11;;;;;;;2.90;2.40;;;26.40;71.40;;;;;;5074450;28;20236;-70
2023/08/27 11:41:39;;;;;;;2.60;2.10;;;26.50;71.40;;;;;;5073116;28;20225;-70
2023/08/27 11:44:10;;;;;;;2.47;2.27;;;26.70;71.40;;;;;;5074541;28;20225;-70
2023/08/27 11:46:37;;;;;;;3.80;2.43;;;26.80;71.00;;;;;;5074577;28;20214;-70
2023/08/27 11:49:05;;;;;;;3.20;2.10;;;26.90;70.20;;;;;;5074195;28;20233;-69
2023/08/27 11:51:33;;;;;;;2.83;2.20;;;26.90;69.20;;;;;;5074035;28;20211;-68
2023/08/27 11:54:05;;;;;;;2.40;2.20;;;26.90;69.10;;;;;;5074436;28;20205;-70
2023/08/27 11:56:32;;;;;;;3.13;2.57;;;27.00;69.10;;;;;;5073952;28;20193;-70
2023/08/27 11:59:00;;;;;;;3.53;2.70;;;27.00;68.40;;;;;;5074108;28;20217;-70
2023/08/27 12:01:27;;;;;;;4.07;2.70;;;26.90;68.80;;;;;;5074205;28;20209;-70
2023/08/27 12:03:54;;;;;;;4.03;2.50;;;26.80;68.50;;;;;;5074408;28;20209;-70
2023/08/27 12:06:24;;;;;;;2.50;2.07;;;26.60;68.60;;;;;;5073523;28;20236;-69
2023/08/27 12:08:53;;;;;;;4.10;2.40;;;26.60;68.80;;;;;;5073838;28;20743;-70
2023/08/27 12:11:26;;;;;;;2.63;2.43;;;26.60;68.90;;;;;;5074072;28;20240;-71
2023/08/27 12:13:57;;;;;;;3.67;2.57;;;26.50;69.80;;;;;;5073757;28;20189;-69
2023/08/27 12:16:29;;;;;;;2.70;2.50;;;26.60;68.80;;;;;;5073483;28;20225;-70
2023/08/27 12:19:05;;;;;;;4.40;2.47;;;26.50;68.70;;;;;;5073697;28;20220;-70
2023/08/27 12:21:36;;;;;;;3.97;2.60;;;26.50;69.50;;;;;;5074131;28;20235;-70
2023/08/27 12:24:04;;;;;;;2.43;2.23;;;26.50;69.70;;;;;;5073558;28;20245;-69
2023/08/27 12:26:33;;;;;;;2.60;2.40;;;26.50;69.90;;;;;;5073622;28;20235;-70
2023/08/27 12:29:00;;;;;;;2.77;2.47;;;26.60;69.60;;;;;;5074017;28;20207;-70
2023/08/27 12:31:27;;;;;;;3.47;2.77;;;26.60;68.80;;;;;;5073540;28;20236;-70
2023/08/27 12:33:59;;;;;;;4.27;2.40;;;26.50;68.90;;;;;;5073101;28;20262;-70
2023/08/27 12:36:26;;;;;;;2.40;2.20;;;26.50;69.20;;;;;;5073487;28;20232;-70
2023/08/27 12:38:53;;;;;;;3.73;2.20;;;26.50;69.20;;;;;;5073261;28;20237;-69
2023/08/27 12:41:21;;;;;;;5.27;2.60;;;26.50;69.30;;;;;;5073542;28;20212;-70
2023/08/27 12:43:51;;;;;;;2.97;2.67;;;26.30;69.40;;;;;;5073500;28;20198;-70
2023/08/27 12:46:18;;;;;;;2.33;2.13;;;26.10;68.50;;;;;;5073242;28;20196;-70
2023/08/27 12:48:46;;;;;;;2.43;2.13;;;26.00;68.90;;;;;;5072788;28;20217;-69
2023/08/27 12:51:14;;;;;;;3.80;2.10;;;25.90;69.20;;;;;;5073363;28;20213;-70